TimeEDT,TemperatureF,Dew PointF,Humidity,Sea Level PressureIn,VisibilityMPH,Wind Direction,Wind SpeedMPH,Gust SpeedMPH,PrecipitationIn,Events,Conditions,WindDirDegrees,DateUTC
12:09 AM,80.6,75.2,84,30.02,10.0,East,9.2,-,N/A,,Mostly Cloudy,90,2012-09-11 04:09:00
12:39 AM,80.6,77.0,89,30.03,10.0,East,9.2,-,N/A,,Scattered Clouds,100,2012-09-11 04:39:00
12:53 AM,80.1,75.9,87,30.03,10.0,East,8.1,-,N/A,,Mostly Cloudy,100,2012-09-11 04:53:00
1:53 AM,80.1,77.0,90,30.02,10.0,ESE,8.1,-,N/A,,Mostly Cloudy,110,2012-09-11 05:53:00
2:53 AM,80.1,77.0,90,30.01,10.0,East,12.7,-,N/A,,Partly Cloudy,100,2012-09-11 06:53:00
3:42 AM,80.6,77.0,89,30.00,10.0,ENE,11.5,-,N/A,,Mostly Cloudy,70,2012-09-11 07:42:00
3:53 AM,79.0,77.0,94,30.01,10.0,ENE,10.4,-,N/A,,Mostly Cloudy,70,2012-09-11 07:53:00
4:07 AM,78.8,77.0,94,30.00,10.0,East,10.4,-,N/A,,Scattered Clouds,80,2012-09-11 08:07:00
4:53 AM,80.1,77.0,90,30.01,10.0,East,12.7,-,N/A,,Scattered Clouds,80,2012-09-11 08:53:00
5:53 AM,79.0,75.9,90,30.02,10.0,East,11.5,-,N/A,,Scattered Clouds,80,2012-09-11 09:53:00
6:53 AM,79.0,77.0,94,30.04,10.0,ENE,10.4,-,N/A,,Clear,70,2012-09-11 10:53:00
7:53 AM,79.0,77.0,94,30.06,10.0,East,12.7,-,N/A,,Clear,90,2012-09-11 11:53:00
8:53 AM,80.1,77.0,90,30.08,10.0,East,12.7,-,N/A,,Scattered Clouds,80,2012-09-11 12:53:00
9:06 AM,80.6,77.0,89,30.08,10.0,East,13.8,-,N/A,,Mostly Cloudy,80,2012-09-11 13:06:00
9:25 AM,80.6,75.2,84,30.08,10.0,East,15.0,-,N/A,,Mostly Cloudy,90,2012-09-11 13:25:00
9:53 AM,82.0,77.0,85,30.08,10.0,East,15.0,-,N/A,,Overcast,90,2012-09-11 13:53:00
10:53 AM,84.0,77.0,79,30.09,10.0,East,15.0,-,N/A,,Partly Cloudy,100,2012-09-11 14:53:00
11:53 AM,84.9,75.0,72,30.09,10.0,ESE,11.5,-,N/A,,Overcast,110,2012-09-11 15:53:00
12:53 PM,86.0,75.9,72,30.09,10.0,East,13.8,-,N/A,,Overcast,90,2012-09-11 16:53:00
1:53 PM,86.0,75.9,72,30.08,10.0,East,11.5,-,N/A,,Overcast,80,2012-09-11 17:53:00
2:53 PM,87.1,75.9,69,30.05,10.0,East,10.4,-,N/A,,Overcast,80,2012-09-11 18:53:00
3:53 PM,87.1,75.0,67,30.04,10.0,East,9.2,-,N/A,,Overcast,90,2012-09-11 19:53:00
4:53 PM,87.1,75.9,69,30.04,10.0,East,10.4,-,N/A,,Mostly Cloudy,100,2012-09-11 20:53:00
5:53 PM,84.9,75.0,72,30.04,10.0,East,19.6,-,0.00,,Mostly Cloudy,90,2012-09-11 21:53:00
7:53 PM,84.0,73.0,69,30.07,10.0,East,17.3,-,N/A,,Overcast,100,2012-09-11 23:53:00
8:53 PM,82.9,73.0,72,30.09,10.0,East,16.1,-,N/A,,Clear,90,2012-09-12 00:53:00
9:53 PM,82.0,72.0,71,30.12,10.0,East,17.3,-,N/A,,Mostly Cloudy,100,2012-09-12 01:53:00
10:53 PM,82.0,72.0,71,30.12,10.0,East,17.3,-,N/A,,Mostly Cloudy,90,2012-09-12 02:53:00
11:53 PM,81.0,71.1,72,30.12,10.0,East,17.3,-,N/A,,Mostly Cloudy,80,2012-09-12 03:53:00